^^
Meteo Knjazevac Station Historical Data
Daily Summary for August 4, 2021 Units:  Both    English   Metric
Daily Weekly Monthly Yearly Custom
  High: Low: Average:
Temperature: 45.9 °F /  7.7 °C 35.4 °F /  1.9 °C 40.2 °F /  4.6 °C
Dew Point: 41.6 °F /  5.3 °C 32.8 °F /  0.4 °C 36.8 °F /  2.7 °C
Humidity: 90% 84% 87%
Wind Speed: 3mph /  4.8km/h - 0.3mph /  0.5km/h
Wind Gust: 5mph /  8km/h - -
Wind- - SW
Pressure: 30.30 in /  1026 hPa 30.28 in /  1025.3 hPa -
Precipitation: 0.00 in /  0 mm    
Historical Graphs
 
 
Tabular Data for August 4, 2021
Time Temperature Dew Point Pressure Wind Wind Speed Wind Gust Humidity Rainfall Rate (Hourly) solar Conditions
00:00 45.9 °F /  7.7 °C 41.6 °F /  5.3 °C 30.28in /  1025.3hPa ENE 1mph /  1.6km/h 3mph /  4.8km/h 85% 0.00in /  0mm 0 W/m2
00:10 45.7 °F /  7.6 °C 41.4 °F /  5.2 °C 30.28in /  1025.3hPa ESE 1mph /  1.6km/h 3mph /  4.8km/h 85% 0.00in /  0mm 0 W/m2
00:20 45.5 °F /  7.5 °C 41.3 °F /  5.2 °C 30.28in /  1025.3hPa SSE 1mph /  1.6km/h 3mph /  4.8km/h 85% 0.00in /  0mm 0 W/m2
00:30 45.3 °F /  7.4 °C 41.1 °F /  5.1 °C 30.28in /  1025.3hPa Calm   3mph /  4.8km/h 85% 0.00in /  0mm 0 W/m2
00:40 45.1 °F /  7.3 °C 40.9 °F /  4.9 °C 30.28in /  1025.3hPa Calm   2mph /  3.2km/h 85% 0.00in /  0mm 0 W/m2
00:50 45 °F /  7.2 °C 41 °F /  5 °C 30.28in /  1025.3hPa North 1mph /  1.6km/h 2mph /  3.2km/h 86% 0.00in /  0mm 0 W/m2
01:00 44.6 °F /  7 °C 40.1 °F /  4.5 °C 30.29in /  1025.6hPa Calm   2mph /  3.2km/h 84% 0.00in /  0mm 0 W/m2
01:10 44.1 °F /  6.7 °C 39.5 °F /  4.2 °C 30.28in /  1025.3hPa Calm   2mph /  3.2km/h 84% 0.00in /  0mm 0 W/m2
01:20 43.8 °F /  6.6 °C 39.6 °F /  4.2 °C 30.28in /  1025.3hPa Calm   2mph /  3.2km/h 85% 0.00in /  0mm 0 W/m2
01:30 43.3 °F /  6.3 °C 38.8 °F /  3.8 °C 30.28in /  1025.3hPa Calm     84% 0.00in /  0mm 0 W/m2
01:40 42.8 °F /  6 °C 38.3 °F /  3.5 °C 30.29in /  1025.6hPa Calm     84% 0.00in /  0mm 0 W/m2
01:50 42.3 °F /  5.7 °C 38.1 °F /  3.4 °C 30.29in /  1025.6hPa Calm   1mph /  1.6km/h 85% 0.00in /  0mm 0 W/m2
02:00 41.9 °F /  5.5 °C 37.7 °F /  3.2 °C 30.28in /  1025.3hPa Calm   2mph /  3.2km/h 85% 0.00in /  0mm 0 W/m2
02:10 41.5 °F /  5.3 °C 37.4 °F /  3 °C 30.28in /  1025.3hPa Calm   1mph /  1.6km/h 85% 0.00in /  0mm 0 W/m2
02:20 41.2 °F /  5.1 °C 37.3 °F /  2.9 °C 30.29in /  1025.6hPa NW 1mph /  1.6km/h 2mph /  3.2km/h 86% 0.00in /  0mm 0 W/m2
02:30 41 °F /  5 °C 37.4 °F /  3 °C 30.29in /  1025.6hPa NW 1mph /  1.6km/h 3mph /  4.8km/h 87% 0.00in /  0mm 0 W/m2
02:40 41.2 °F /  5.1 °C 38.2 °F /  3.4 °C 30.29in /  1025.6hPa Calm   2mph /  3.2km/h 89% 0.00in /  0mm 0 W/m2
02:50 40.8 °F /  4.9 °C 37 °F /  2.8 °C 30.29in /  1025.6hPa Calm   1mph /  1.6km/h 86% 0.00in /  0mm 0 W/m2
03:00 40.3 °F /  4.6 °C 36.4 °F /  2.4 °C 30.28in /  1025.3hPa West 1mph /  1.6km/h 2mph /  3.2km/h 86% 0.00in /  0mm 0 W/m2
03:10 39.7 °F /  4.3 °C 36.5 °F /  2.5 °C 30.28in /  1025.3hPa WNW 3mph /  4.8km/h 5mph /  8km/h 88% 0.00in /  0mm 0 W/m2
03:20 39.7 °F /  4.3 °C 36.8 °F /  2.7 °C 30.28in /  1025.3hPa Calm   5mph /  8km/h 89% 0.00in /  0mm 0 W/m2
03:30 39.7 °F /  4.3 °C 36.8 °F /  2.7 °C 30.28in /  1025.3hPa Calm   1mph /  1.6km/h 89% 0.00in /  0mm 0 W/m2
03:40 39.2 °F /  4 °C 35.9 °F /  2.2 °C 30.28in /  1025.3hPa Calm   2mph /  3.2km/h 88% 0.00in /  0mm 0 W/m2
03:50 39 °F /  3.9 °C 35.8 °F /  2.1 °C 30.28in /  1025.3hPa Calm   2mph /  3.2km/h 88% 0.00in /  0mm 0 W/m2
04:00 38.8 °F /  3.8 °C 35.5 °F /  1.9 °C 30.28in /  1025.3hPa Calm   1mph /  1.6km/h 88% 0.00in /  0mm 0 W/m2
04:10 38.5 °F /  3.6 °C 35.2 °F /  1.8 °C 30.28in /  1025.3hPa NW 1mph /  1.6km/h 2mph /  3.2km/h 88% 0.00in /  0mm 0 W/m2
04:20 38.3 °F /  3.5 °C 35.3 °F /  1.8 °C 30.28in /  1025.3hPa NW 1mph /  1.6km/h 2mph /  3.2km/h 89% 0.00in /  0mm 0 W/m2
04:30 38.3 °F /  3.5 °C 35.6 °F /  2 °C 30.28in /  1025.3hPa Calm   3mph /  4.8km/h 90% 0.00in /  0mm 0 W/m2
04:40 38.1 °F /  3.4 °C 35.2 °F /  1.8 °C 30.28in /  1025.3hPa Calm   1mph /  1.6km/h 89% 0.00in /  0mm 0 W/m2
04:50 37.9 °F /  3.3 °C 34.9 °F /  1.6 °C 30.28in /  1025.3hPa Calm   2mph /  3.2km/h 89% 0.00in /  0mm 0 W/m2
05:00 37.4 °F /  3 °C 34.5 °F /  1.4 °C 30.29in /  1025.6hPa Calm   2mph /  3.2km/h 89% 0.00in /  0mm 0 W/m2
05:10 37.4 °F /  3 °C 34.7 °F /  1.5 °C 30.29in /  1025.6hPa Calm   2mph /  3.2km/h 90% 0.00in /  0mm 0 W/m2
05:20 37 °F /  2.8 °C 34.1 °F /  1.2 °C 30.29in /  1025.6hPa NW 1mph /  1.6km/h 2mph /  3.2km/h 89% 0.00in /  0mm 0 W/m2
05:30 36.7 °F /  2.6 °C 33.7 °F /  0.9 °C 30.29in /  1025.6hPa Calm   2mph /  3.2km/h 89% 0.00in /  0mm 0 W/m2
05:40 36.5 °F /  2.5 °C 33.6 °F /  0.9 °C 30.29in /  1025.6hPa Calm     89% 0.00in /  0mm 0 W/m2
05:50 36.3 °F /  2.4 °C 33.7 °F /  0.9 °C 30.30in /  1026hPa Calm     90% 0.00in /  0mm 0 W/m2
06:00 36.1 °F /  2.3 °C 33.5 °F /  0.8 °C 30.30in /  1026hPa Calm   1mph /  1.6km/h 90% 0.00in /  0mm 0 W/m2
06:10 36 °F /  2.2 °C 33.3 °F /  0.7 °C 30.30in /  1026hPa Calm     90% 0.00in /  0mm 0 W/m2
06:20 36 °F /  2.2 °C 33.3 °F /  0.7 °C 30.30in /  1026hPa Calm   1mph /  1.6km/h 90% 0.00in /  0mm 0 W/m2
06:30 35.6 °F /  2 °C 33 °F /  0.6 °C 30.30in /  1026hPa Calm   2mph /  3.2km/h 90% 0.00in /  0mm 0 W/m2
06:40 35.4 °F /  1.9 °C 32.8 °F /  0.4 °C 30.30in /  1026hPa WNW 1mph /  1.6km/h 2mph /  3.2km/h 90% 0.00in /  0mm 8 W/m2
Knjazevac, Serbia
Compliments of Weather Underground - 2 mb